sensor_id;sensor_type;location;lat;lon;timestamp;P1;durP1;ratioP1;P2;durP2;ratioP2
68792;SDS011;55778;54.346;10.210;2022-08-04T00:02:23;8.80;;;5.22;;
68792;SDS011;55778;54.346;10.210;2022-08-04T00:04:52;8.35;;;5.35;;
68792;SDS011;55778;54.346;10.210;2022-08-04T00:10:02;9.50;;;5.18;;
68792;SDS011;55778;54.346;10.210;2022-08-04T00:12:31;7.70;;;4.63;;
68792;SDS011;55778;54.346;10.210;2022-08-04T00:14:58;6.55;;;4.10;;
68792;SDS011;55778;54.346;10.210;2022-08-04T00:17:48;10.98;;;4.43;;
68792;SDS011;55778;54.346;10.210;2022-08-04T00:20:32;9.20;;;4.82;;
68792;SDS011;55778;54.346;10.210;2022-08-04T00:23:00;7.57;;;4.32;;
68792;SDS011;55778;54.346;10.210;2022-08-04T00:25:26;7.03;;;3.88;;
68792;SDS011;55778;54.346;10.210;2022-08-04T00:27:53;9.57;;;4.03;;
68792;SDS011;55778;54.346;10.210;2022-08-04T00:30:19;7.75;;;4.40;;
68792;SDS011;55778;54.346;10.210;2022-08-04T00:32:45;7.78;;;4.20;;
68792;SDS011;55778;54.346;10.210;2022-08-04T00:35:14;10.55;;;4.43;;
68792;SDS011;55778;54.346;10.210;2022-08-04T00:37:40;8.07;;;4.13;;
68792;SDS011;55778;54.346;10.210;2022-08-04T00:40:13;12.82;;;4.53;;
68792;SDS011;55778;54.346;10.210;2022-08-04T00:43:09;8.02;;;4.25;;
68792;SDS011;55778;54.346;10.210;2022-08-04T00:48:36;8.20;;;4.82;;
68792;SDS011;55778;54.346;10.210;2022-08-04T00:59:42;10.25;;;5.03;;
68792;SDS011;55778;54.346;10.210;2022-08-04T01:05:21;9.25;;;4.90;;
68792;SDS011;55778;54.346;10.210;2022-08-04T01:08:15;9.32;;;5.05;;
68792;SDS011;55778;54.346;10.210;2022-08-04T01:10:58;9.15;;;4.72;;
68792;SDS011;55778;54.346;10.210;2022-08-04T01:16:20;8.20;;;5.07;;
68792;SDS011;55778;54.346;10.210;2022-08-04T01:26:50;12.07;;;6.15;;
68792;SDS011;55778;54.346;10.210;2022-08-04T01:29:20;9.80;;;6.13;;
68792;SDS011;55778;54.346;10.210;2022-08-04T01:31:49;10.55;;;7.35;;
68792;SDS011;55778;54.346;10.210;2022-08-04T01:34:25;13.57;;;7.50;;
68792;SDS011;55778;54.346;10.210;2022-08-04T01:37:11;12.07;;;7.38;;
68792;SDS011;55778;54.346;10.210;2022-08-04T01:39:59;16.75;;;7.80;;
68792;SDS011;55778;54.346;10.210;2022-08-04T01:42:30;12.55;;;7.60;;
68792;SDS011;55778;54.346;10.210;2022-08-04T01:44:57;15.02;;;7.07;;
68792;SDS011;55778;54.346;10.210;2022-08-04T01:47:27;14.48;;;7.78;;
68792;SDS011;55778;54.346;10.210;2022-08-04T01:49:57;13.40;;;7.47;;
68792;SDS011;55778;54.346;10.210;2022-08-04T01:52:29;14.93;;;6.90;;
68792;SDS011;55778;54.346;10.210;2022-08-04T01:54:57;14.65;;;7.85;;
68792;SDS011;55778;54.346;10.210;2022-08-04T01:57:25;16.15;;;8.55;;
68792;SDS011;55778;54.346;10.210;2022-08-04T01:59:52;17.00;;;9.10;;
68792;SDS011;55778;54.346;10.210;2022-08-04T02:02:21;14.15;;;8.57;;
68792;SDS011;55778;54.346;10.210;2022-08-04T02:04:48;18.30;;;8.38;;
68792;SDS011;55778;54.346;10.210;2022-08-04T02:07:18;11.80;;;7.72;;
68792;SDS011;55778;54.346;10.210;2022-08-04T02:10:04;16.13;;;8.02;;
68792;SDS011;55778;54.346;10.210;2022-08-04T02:15:30;12.35;;;6.63;;
68792;SDS011;55778;54.346;10.210;2022-08-04T02:18:09;17.48;;;7.05;;
68792;SDS011;55778;54.346;10.210;2022-08-04T02:20:44;14.40;;;7.32;;
68792;SDS011;55778;54.346;10.210;2022-08-04T02:23:13;38.65;;;21.17;;
68792;SDS011;55778;54.346;10.210;2022-08-04T02:25:46;14.43;;;9.50;;
68792;SDS011;55778;54.346;10.210;2022-08-04T02:33:35;14.05;;;7.93;;
68792;SDS011;55778;54.346;10.210;2022-08-04T02:40:59;15.02;;;6.90;;
68792;SDS011;55778;54.346;10.210;2022-08-04T02:43:25;14.85;;;8.23;;
68792;SDS011;55778;54.346;10.210;2022-08-04T02:45:54;15.45;;;7.55;;
68792;SDS011;55778;54.346;10.210;2022-08-04T02:48:21;14.05;;;7.43;;
68792;SDS011;55778;54.346;10.210;2022-08-04T02:50:48;12.65;;;7.10;;
68792;SDS011;55778;54.346;10.210;2022-08-04T02:53:15;40.92;;;32.50;;
68792;SDS011;55778;54.346;10.210;2022-08-04T02:55:49;19.20;;;8.95;;
68792;SDS011;55778;54.346;10.210;2022-08-04T02:58:17;17.65;;;10.85;;
68792;SDS011;55778;54.346;10.210;2022-08-04T03:00:44;16.42;;;7.85;;
68792;SDS011;55778;54.346;10.210;2022-08-04T03:06:26;15.20;;;7.75;;
68792;SDS011;55778;54.346;10.210;2022-08-04T03:14:46;16.60;;;10.40;;
68792;SDS011;55778;54.346;10.210;2022-08-04T03:20:30;12.90;;;7.55;;
68792;SDS011;55778;54.346;10.210;2022-08-04T03:23:23;13.60;;;7.05;;
68792;SDS011;55778;54.346;10.210;2022-08-04T03:34:27;14.82;;;8.02;;
68792;SDS011;55778;54.346;10.210;2022-08-04T03:37:22;13.80;;;7.72;;
68792;SDS011;55778;54.346;10.210;2022-08-04T03:51:25;12.65;;;6.72;;
68792;SDS011;55778;54.346;10.210;2022-08-04T03:54:31;13.43;;;7.13;;
68792;SDS011;55778;54.346;10.210;2022-08-04T03:57:52;10.15;;;6.82;;
68792;SDS011;55778;54.346;10.210;2022-08-04T04:19:52;9.80;;;5.60;;
68792;SDS011;55778;54.346;10.210;2022-08-04T04:25:17;9.88;;;5.18;;
68792;SDS011;55778;54.346;10.210;2022-08-04T04:30:41;8.15;;;5.38;;
68792;SDS011;55778;54.346;10.210;2022-08-04T04:38:43;12.23;;;4.75;;
68792;SDS011;55778;54.346;10.210;2022-08-04T04:44:04;11.85;;;4.68;;
68792;SDS011;55778;54.346;10.210;2022-08-04T04:46:45;11.38;;;4.90;;
68792;SDS011;55778;54.346;10.210;2022-08-04T04:49:21;8.02;;;4.80;;
68792;SDS011;55778;54.346;10.210;2022-08-04T04:55:14;9.40;;;4.30;;
68792;SDS011;55778;54.346;10.210;2022-08-04T04:57:44;11.70;;;4.30;;
68792;SDS011;55778;54.346;10.210;2022-08-04T05:00:11;12.18;;;4.22;;
68792;SDS011;55778;54.346;10.210;2022-08-04T05:13:56;10.93;;;4.17;;
68792;SDS011;55778;54.346;10.210;2022-08-04T05:16:26;7.13;;;3.80;;
68792;SDS011;55778;54.346;10.210;2022-08-04T05:21:48;7.50;;;3.58;;
68792;SDS011;55778;54.346;10.210;2022-08-04T05:24:21;6.72;;;3.10;;
68792;SDS011;55778;54.346;10.210;2022-08-04T05:26:54;9.45;;;3.60;;
68792;SDS011;55778;54.346;10.210;2022-08-04T05:29:28;9.20;;;4.50;;
68792;SDS011;55778;54.346;10.210;2022-08-04T05:31:58;9.57;;;3.60;;
68792;SDS011;55778;54.346;10.210;2022-08-04T05:34:29;8.38;;;3.78;;
68792;SDS011;55778;54.346;10.210;2022-08-04T05:37:02;9.52;;;4.03;;
68792;SDS011;55778;54.346;10.210;2022-08-04T05:39:37;9.90;;;3.25;;
68792;SDS011;55778;54.346;10.210;2022-08-04T05:42:10;8.57;;;3.30;;
68792;SDS011;55778;54.346;10.210;2022-08-04T05:44:37;8.05;;;3.50;;
68792;SDS011;55778;54.346;10.210;2022-08-04T05:47:03;11.38;;;3.60;;
68792;SDS011;55778;54.346;10.210;2022-08-04T05:49:31;7.78;;;2.97;;
68792;SDS011;55778;54.346;10.210;2022-08-04T05:51:58;10.90;;;3.40;;
68792;SDS011;55778;54.346;10.210;2022-08-04T05:54:26;12.27;;;3.35;;
68792;SDS011;55778;54.346;10.210;2022-08-04T05:56:53;12.63;;;3.20;;
68792;SDS011;55778;54.346;10.210;2022-08-04T05:59:20;9.50;;;3.30;;
68792;SDS011;55778;54.346;10.210;2022-08-04T06:01:49;9.35;;;3.50;;
68792;SDS011;55778;54.346;10.210;2022-08-04T06:04:16;6.63;;;3.10;;
68792;SDS011;55778;54.346;10.210;2022-08-04T06:06:44;6.72;;;2.63;;
68792;SDS011;55778;54.346;10.210;2022-08-04T06:09:10;10.68;;;3.33;;
68792;SDS011;55778;54.346;10.210;2022-08-04T06:11:37;12.52;;;3.08;;
68792;SDS011;55778;54.346;10.210;2022-08-04T06:14:04;7.45;;;3.28;;
68792;SDS011;55778;54.346;10.210;2022-08-04T06:16:37;6.95;;;2.83;;
68792;SDS011;55778;54.346;10.210;2022-08-04T06:19:08;7.60;;;3.00;;
68792;SDS011;55778;54.346;10.210;2022-08-04T06:21:40;7.88;;;2.60;;
68792;SDS011;55778;54.346;10.210;2022-08-04T06:24:10;7.65;;;2.60;;
68792;SDS011;55778;54.346;10.210;2022-08-04T06:26:39;7.97;;;2.90;;
68792;SDS011;55778;54.346;10.210;2022-08-04T06:29:04;4.43;;;2.70;;
68792;SDS011;55778;54.346;10.210;2022-08-04T06:31:39;7.10;;;2.60;;
68792;SDS011;55778;54.346;10.210;2022-08-04T06:34:13;6.13;;;2.50;;
68792;SDS011;55778;54.346;10.210;2022-08-04T06:36:40;7.90;;;2.50;;
68792;SDS011;55778;54.346;10.210;2022-08-04T06:39:11;6.18;;;2.38;;
68792;SDS011;55778;54.346;10.210;2022-08-04T06:41:37;6.18;;;2.60;;
68792;SDS011;55778;54.346;10.210;2022-08-04T06:44:04;5.78;;;2.50;;
68792;SDS011;55778;54.346;10.210;2022-08-04T06:46:33;7.97;;;2.60;;
68792;SDS011;55778;54.346;10.210;2022-08-04T06:49:02;6.07;;;2.50;;
68792;SDS011;55778;54.346;10.210;2022-08-04T06:51:29;7.20;;;2.63;;
68792;SDS011;55778;54.346;10.210;2022-08-04T06:53:55;6.38;;;2.33;;
68792;SDS011;55778;54.346;10.210;2022-08-04T06:56:21;5.45;;;2.17;;
68792;SDS011;55778;54.346;10.210;2022-08-04T06:58:49;3.90;;;2.35;;
68792;SDS011;55778;54.346;10.210;2022-08-04T07:01:18;7.80;;;2.80;;
68792;SDS011;55778;54.346;10.210;2022-08-04T07:03:45;5.80;;;2.43;;
68792;SDS011;55778;54.346;10.210;2022-08-04T07:06:12;5.22;;;2.40;;
68792;SDS011;55778;54.346;10.210;2022-08-04T07:08:38;6.10;;;2.35;;
68792;SDS011;55778;54.346;10.210;2022-08-04T07:11:04;6.53;;;2.45;;
68792;SDS011;55778;54.346;10.210;2022-08-04T07:13:30;5.43;;;2.40;;
68792;SDS011;55778;54.346;10.210;2022-08-04T07:15:56;5.70;;;2.10;;
68792;SDS011;55778;54.346;10.210;2022-08-04T07:18:23;8.02;;;2.50;;
68792;SDS011;55778;54.346;10.210;2022-08-04T07:20:49;6.95;;;2.67;;
68792;SDS011;55778;54.346;10.210;2022-08-04T07:23:16;5.72;;;2.25;;
68792;SDS011;55778;54.346;10.210;2022-08-04T07:25:51;4.10;;;2.13;;
68792;SDS011;55778;54.346;10.210;2022-08-04T07:28:18;7.22;;;2.30;;
68792;SDS011;55778;54.346;10.210;2022-08-04T07:30:46;8.50;;;2.33;;
68792;SDS011;55778;54.346;10.210;2022-08-04T07:33:13;8.20;;;2.15;;
68792;SDS011;55778;54.346;10.210;2022-08-04T07:35:40;6.00;;;2.20;;
68792;SDS011;55778;54.346;10.210;2022-08-04T07:38:06;4.22;;;2.00;;
68792;SDS011;55778;54.346;10.210;2022-08-04T07:40:32;9.93;;;2.58;;
68792;SDS011;55778;54.346;10.210;2022-08-04T07:43:00;4.95;;;2.08;;
68792;SDS011;55778;54.346;10.210;2022-08-04T07:45:26;6.25;;;2.10;;
68792;SDS011;55778;54.346;10.210;2022-08-04T07:47:54;5.05;;;2.38;;
68792;SDS011;55778;54.346;10.210;2022-08-04T07:50:20;8.40;;;2.50;;
68792;SDS011;55778;54.346;10.210;2022-08-04T07:52:46;6.80;;;2.10;;
68792;SDS011;55778;54.346;10.210;2022-08-04T07:55:15;6.53;;;2.15;;
68792;SDS011;55778;54.346;10.210;2022-08-04T07:57:41;7.40;;;2.15;;
68792;SDS011;55778;54.346;10.210;2022-08-04T08:00:08;5.85;;;1.83;;
68792;SDS011;55778;54.346;10.210;2022-08-04T08:02:34;6.72;;;1.92;;
68792;SDS011;55778;54.346;10.210;2022-08-04T08:05:01;9.25;;;2.40;;
68792;SDS011;55778;54.346;10.210;2022-08-04T08:07:27;3.95;;;1.75;;
68792;SDS011;55778;54.346;10.210;2022-08-04T08:09:52;7.78;;;2.88;;
68792;SDS011;55778;54.346;10.210;2022-08-04T08:12:18;8.70;;;2.30;;
68792;SDS011;55778;54.346;10.210;2022-08-04T08:14:44;8.40;;;1.92;;
68792;SDS011;55778;54.346;10.210;2022-08-04T08:17:10;7.72;;;2.40;;
68792;SDS011;55778;54.346;10.210;2022-08-04T08:19:35;8.43;;;1.98;;
68792;SDS011;55778;54.346;10.210;2022-08-04T08:22:01;6.38;;;1.70;;
68792;SDS011;55778;54.346;10.210;2022-08-04T08:24:28;6.63;;;1.90;;
68792;SDS011;55778;54.346;10.210;2022-08-04T08:26:55;6.75;;;2.20;;
68792;SDS011;55778;54.346;10.210;2022-08-04T08:29:21;5.38;;;1.83;;
68792;SDS011;55778;54.346;10.210;2022-08-04T08:31:47;7.13;;;2.08;;
68792;SDS011;55778;54.346;10.210;2022-08-04T08:34:13;9.32;;;2.08;;
68792;SDS011;55778;54.346;10.210;2022-08-04T08:36:50;6.07;;;1.85;;
68792;SDS011;55778;54.346;10.210;2022-08-04T08:39:27;8.02;;;1.80;;
68792;SDS011;55778;54.346;10.210;2022-08-04T08:50:43;7.07;;;1.80;;
68792;SDS011;55778;54.346;10.210;2022-08-04T08:56:01;7.97;;;2.00;;
68792;SDS011;55778;54.346;10.210;2022-08-04T09:09:40;4.95;;;1.40;;
68792;SDS011;55778;54.346;10.210;2022-08-04T09:12:35;5.68;;;1.33;;
68792;SDS011;55778;54.346;10.210;2022-08-04T09:15:40;5.18;;;1.42;;
68792;SDS011;55778;54.346;10.210;2022-08-04T09:21:05;3.17;;;1.20;;
68792;SDS011;55778;54.346;10.210;2022-08-04T09:29:14;4.68;;;1.38;;
68792;SDS011;55778;54.346;10.210;2022-08-04T09:31:47;6.22;;;1.30;;
68792;SDS011;55778;54.346;10.210;2022-08-04T09:37:24;4.78;;;1.50;;
68792;SDS011;55778;54.346;10.210;2022-08-04T09:40:00;5.57;;;1.48;;
68792;SDS011;55778;54.346;10.210;2022-08-04T09:49:01;2.22;;;1.00;;
68792;SDS011;55778;54.346;10.210;2022-08-04T09:59:45;4.40;;;0.93;;
68792;SDS011;55778;54.346;10.210;2022-08-04T10:04:56;3.05;;;1.05;;
68792;SDS011;55778;54.346;10.210;2022-08-04T10:10:11;2.65;;;0.90;;
68792;SDS011;55778;54.346;10.210;2022-08-04T10:15:35;4.50;;;1.00;;
68792;SDS011;55778;54.346;10.210;2022-08-04T10:20:47;4.53;;;1.30;;
68792;SDS011;55778;54.346;10.210;2022-08-04T10:23:22;2.17;;;1.08;;
68792;SDS011;55778;54.346;10.210;2022-08-04T10:28:53;3.95;;;1.48;;
68792;SDS011;55778;54.346;10.210;2022-08-04T10:31:26;1.45;;;1.10;;
68792;SDS011;55778;54.346;10.210;2022-08-04T10:33:58;2.13;;;1.00;;
68792;SDS011;55778;54.346;10.210;2022-08-04T10:36:31;3.00;;;0.95;;
68792;SDS011;55778;54.346;10.210;2022-08-04T10:39:09;3.08;;;1.00;;
68792;SDS011;55778;54.346;10.210;2022-08-04T10:44:15;3.67;;;1.25;;
68792;SDS011;55778;54.346;10.210;2022-08-04T10:46:50;6.63;;;1.27;;
68792;SDS011;55778;54.346;10.210;2022-08-04T10:49:28;4.22;;;1.35;;
68792;SDS011;55778;54.346;10.210;2022-08-04T10:57:42;4.85;;;1.30;;
68792;SDS011;55778;54.346;10.210;2022-08-04T11:00:14;4.88;;;1.50;;
68792;SDS011;55778;54.346;10.210;2022-08-04T11:02:50;4.47;;;1.20;;
68792;SDS011;55778;54.346;10.210;2022-08-04T11:05:28;2.67;;;1.15;;
68792;SDS011;55778;54.346;10.210;2022-08-04T11:08:02;6.63;;;1.35;;
68792;SDS011;55778;54.346;10.210;2022-08-04T11:10:36;4.63;;;1.30;;
68792;SDS011;55778;54.346;10.210;2022-08-04T11:13:09;6.25;;;1.20;;
68792;SDS011;55778;54.346;10.210;2022-08-04T11:15:39;3.20;;;1.27;;
68792;SDS011;55778;54.346;10.210;2022-08-04T11:18:10;3.05;;;1.30;;
68792;SDS011;55778;54.346;10.210;2022-08-04T11:20:42;3.45;;;1.30;;
68792;SDS011;55778;54.346;10.210;2022-08-04T11:23:34;6.60;;;1.27;;
68792;SDS011;55778;54.346;10.210;2022-08-04T11:26:15;10.32;;;2.85;;
68792;SDS011;55778;54.346;10.210;2022-08-04T11:31:11;5.43;;;1.98;;
68792;SDS011;55778;54.346;10.210;2022-08-04T11:36:24;3.30;;;1.17;;
68792;SDS011;55778;54.346;10.210;2022-08-04T11:39:05;2.38;;;1.10;;
68792;SDS011;55778;54.346;10.210;2022-08-04T11:41:55;1.80;;;1.00;;
68792;SDS011;55778;54.346;10.210;2022-08-04T11:44:25;3.72;;;2.42;;
68792;SDS011;55778;54.346;10.210;2022-08-04T11:46:59;2.30;;;0.90;;
68792;SDS011;55778;54.346;10.210;2022-08-04T11:49:39;1.98;;;1.20;;
68792;SDS011;55778;54.346;10.210;2022-08-04T11:52:08;2.40;;;1.30;;
68792;SDS011;55778;54.346;10.210;2022-08-04T11:54:36;1.60;;;1.30;;
68792;SDS011;55778;54.346;10.210;2022-08-04T11:57:04;4.18;;;1.70;;
68792;SDS011;55778;54.346;10.210;2022-08-04T11:59:30;5.13;;;1.80;;
68792;SDS011;55778;54.346;10.210;2022-08-04T12:02:01;4.35;;;1.90;;
68792;SDS011;55778;54.346;10.210;2022-08-04T12:07:35;3.70;;;2.13;;
68792;SDS011;55778;54.346;10.210;2022-08-04T12:18:51;3.75;;;2.00;;
68792;SDS011;55778;54.346;10.210;2022-08-04T12:23:57;2.95;;;1.80;;
68792;SDS011;55778;54.346;10.210;2022-08-04T12:26:28;5.28;;;2.00;;
68792;SDS011;55778;54.346;10.210;2022-08-04T12:28:59;4.50;;;2.00;;
68792;SDS011;55778;54.346;10.210;2022-08-04T12:31:26;5.10;;;2.10;;
68792;SDS011;55778;54.346;10.210;2022-08-04T12:34:03;4.65;;;2.15;;
68792;SDS011;55778;54.346;10.210;2022-08-04T12:36:40;2.80;;;2.10;;
68792;SDS011;55778;54.346;10.210;2022-08-04T12:39:15;5.20;;;2.30;;
68792;SDS011;55778;54.346;10.210;2022-08-04T12:41:51;3.25;;;2.28;;
68792;SDS011;55778;54.346;10.210;2022-08-04T12:44:22;4.03;;;2.10;;
68792;SDS011;55778;54.346;10.210;2022-08-04T12:46:49;3.28;;;2.10;;
68792;SDS011;55778;54.346;10.210;2022-08-04T12:49:15;3.55;;;2.13;;
68792;SDS011;55778;54.346;10.210;2022-08-04T12:51:42;3.17;;;1.92;;
68792;SDS011;55778;54.346;10.210;2022-08-04T12:54:09;3.47;;;2.00;;
68792;SDS011;55778;54.346;10.210;2022-08-04T12:59:07;3.03;;;2.00;;
68792;SDS011;55778;54.346;10.210;2022-08-04T13:01:33;7.38;;;2.20;;
68792;SDS011;55778;54.346;10.210;2022-08-04T13:04:02;3.33;;;2.00;;
68792;SDS011;55778;54.346;10.210;2022-08-04T13:06:35;4.43;;;4.00;;
68792;SDS011;55778;54.346;10.210;2022-08-04T13:09:04;3.97;;;2.35;;
68792;SDS011;55778;54.346;10.210;2022-08-04T13:11:42;3.53;;;2.20;;
68792;SDS011;55778;54.346;10.210;2022-08-04T13:14:11;8.50;;;2.35;;
68792;SDS011;55778;54.346;10.210;2022-08-04T13:16:39;2.67;;;2.25;;
68792;SDS011;55778;54.346;10.210;2022-08-04T13:19:06;3.47;;;2.25;;
68792;SDS011;55778;54.346;10.210;2022-08-04T13:21:33;3.88;;;2.45;;
68792;SDS011;55778;54.346;10.210;2022-08-04T13:24:05;4.55;;;2.33;;
68792;SDS011;55778;54.346;10.210;2022-08-04T13:26:34;2.63;;;2.08;;
68792;SDS011;55778;54.346;10.210;2022-08-04T13:29:01;4.78;;;2.40;;
68792;SDS011;55778;54.346;10.210;2022-08-04T13:31:30;2.40;;;2.20;;
68792;SDS011;55778;54.346;10.210;2022-08-04T13:34:02;2.60;;;2.25;;
68792;SDS011;55778;54.346;10.210;2022-08-04T13:36:32;3.50;;;2.38;;
68792;SDS011;55778;54.346;10.210;2022-08-04T13:39:07;4.10;;;2.45;;
68792;SDS011;55778;54.346;10.210;2022-08-04T13:44:07;5.38;;;2.58;;
68792;SDS011;55778;54.346;10.210;2022-08-04T13:47:18;3.95;;;2.45;;
68792;SDS011;55778;54.346;10.210;2022-08-04T13:49:27;2.85;;;2.20;;
68792;SDS011;55778;54.346;10.210;2022-08-04T13:51:55;2.97;;;2.20;;
68792;SDS011;55778;54.346;10.210;2022-08-04T13:54:23;2.58;;;2.38;;
68792;SDS011;55778;54.346;10.210;2022-08-04T13:56:50;3.83;;;2.50;;
68792;SDS011;55778;54.346;10.210;2022-08-04T13:59:20;4.50;;;2.33;;
68792;SDS011;55778;54.346;10.210;2022-08-04T14:01:55;5.50;;;2.47;;
68792;SDS011;55778;54.346;10.210;2022-08-04T14:04:25;3.63;;;2.33;;
68792;SDS011;55778;54.346;10.210;2022-08-04T14:07:01;3.50;;;2.57;;
68792;SDS011;55778;54.346;10.210;2022-08-04T14:09:34;5.90;;;2.60;;
68792;SDS011;55778;54.346;10.210;2022-08-04T14:12:04;5.30;;;2.72;;
68792;SDS011;55778;54.346;10.210;2022-08-04T14:14:34;4.15;;;2.60;;
68792;SDS011;55778;54.346;10.210;2022-08-04T14:17:04;2.88;;;2.50;;
68792;SDS011;55778;54.346;10.210;2022-08-04T14:24:58;3.85;;;2.75;;
68792;SDS011;55778;54.346;10.210;2022-08-04T14:27:39;3.42;;;2.90;;
68792;SDS011;55778;54.346;10.210;2022-08-04T14:33:14;6.63;;;2.42;;
68792;SDS011;55778;54.346;10.210;2022-08-04T14:35:39;5.85;;;2.50;;
68792;SDS011;55778;54.346;10.210;2022-08-04T14:38:05;4.70;;;2.50;;
68792;SDS011;55778;54.346;10.210;2022-08-04T14:40:37;4.35;;;2.53;;
68792;SDS011;55778;54.346;10.210;2022-08-04T14:43:04;3.88;;;2.55;;
68792;SDS011;55778;54.346;10.210;2022-08-04T14:48:11;4.75;;;2.25;;
68792;SDS011;55778;54.346;10.210;2022-08-04T14:50:41;5.50;;;2.75;;
68792;SDS011;55778;54.346;10.210;2022-08-04T14:53:10;6.78;;;2.55;;
68792;SDS011;55778;54.346;10.210;2022-08-04T14:55:37;6.68;;;2.42;;
68792;SDS011;55778;54.346;10.210;2022-08-04T14:58:04;6.78;;;2.95;;
68792;SDS011;55778;54.346;10.210;2022-08-04T15:00:31;5.20;;;2.55;;
68792;SDS011;55778;54.346;10.210;2022-08-04T15:03:07;7.47;;;2.90;;
68792;SDS011;55778;54.346;10.210;2022-08-04T15:05:43;9.65;;;2.97;;
68792;SDS011;55778;54.346;10.210;2022-08-04T15:08:11;5.50;;;2.35;;
68792;SDS011;55778;54.346;10.210;2022-08-04T15:10:38;7.60;;;2.70;;
68792;SDS011;55778;54.346;10.210;2022-08-04T15:13:05;9.20;;;3.08;;
68792;SDS011;55778;54.346;10.210;2022-08-04T15:15:31;6.35;;;2.70;;
68792;SDS011;55778;54.346;10.210;2022-08-04T15:17:57;5.75;;;2.72;;
68792;SDS011;55778;54.346;10.210;2022-08-04T15:20:23;6.55;;;2.85;;
68792;SDS011;55778;54.346;10.210;2022-08-04T15:22:48;6.63;;;3.35;;
68792;SDS011;55778;54.346;10.210;2022-08-04T15:25:14;9.20;;;5.07;;
68792;SDS011;55778;54.346;10.210;2022-08-04T15:27:40;6.57;;;2.90;;
68792;SDS011;55778;54.346;10.210;2022-08-04T15:30:11;8.30;;;2.70;;
68792;SDS011;55778;54.346;10.210;2022-08-04T15:32:49;5.93;;;2.70;;
68792;SDS011;55778;54.346;10.210;2022-08-04T15:35:17;9.05;;;3.20;;
68792;SDS011;55778;54.346;10.210;2022-08-04T15:40:27;6.00;;;3.05;;
68792;SDS011;55778;54.346;10.210;2022-08-04T15:46:06;5.38;;;2.47;;
68792;SDS011;55778;54.346;10.210;2022-08-04T15:48:31;7.85;;;3.03;;
68792;SDS011;55778;54.346;10.210;2022-08-04T15:53:23;8.80;;;2.50;;
68792;SDS011;55778;54.346;10.210;2022-08-04T15:55:49;8.68;;;2.58;;
68792;SDS011;55778;54.346;10.210;2022-08-04T15:58:15;8.18;;;2.60;;
68792;SDS011;55778;54.346;10.210;2022-08-04T16:16:30;9.25;;;2.88;;
68792;SDS011;55778;54.346;10.210;2022-08-04T16:21:59;9.93;;;2.75;;
68792;SDS011;55778;54.346;10.210;2022-08-04T16:27:06;8.05;;;2.83;;
68792;SDS011;55778;54.346;10.210;2022-08-04T16:29:37;9.25;;;2.60;;
68792;SDS011;55778;54.346;10.210;2022-08-04T16:34:30;7.03;;;2.83;;
68792;SDS011;55778;54.346;10.210;2022-08-04T16:37:04;7.28;;;2.92;;
68792;SDS011;55778;54.346;10.210;2022-08-04T16:39:31;5.63;;;2.63;;
68792;SDS011;55778;54.346;10.210;2022-08-04T16:41:57;6.22;;;2.30;;
68792;SDS011;55778;54.346;10.210;2022-08-04T16:44:29;4.28;;;2.22;;
68792;SDS011;55778;54.346;10.210;2022-08-04T16:46:59;4.57;;;2.50;;
68792;SDS011;55778;54.346;10.210;2022-08-04T16:49:26;6.53;;;2.15;;
68792;SDS011;55778;54.346;10.210;2022-08-04T16:51:52;6.43;;;2.50;;
68792;SDS011;55778;54.346;10.210;2022-08-04T16:54:19;8.57;;;2.63;;
68792;SDS011;55778;54.346;10.210;2022-08-04T16:56:46;4.03;;;2.00;;
68792;SDS011;55778;54.346;10.210;2022-08-04T16:59:12;5.90;;;2.30;;
68792;SDS011;55778;54.346;10.210;2022-08-04T17:01:48;6.88;;;2.38;;
68792;SDS011;55778;54.346;10.210;2022-08-04T17:04:17;6.90;;;2.60;;
68792;SDS011;55778;54.346;10.210;2022-08-04T17:06:51;7.15;;;2.30;;
68792;SDS011;55778;54.346;10.210;2022-08-04T17:09:23;7.35;;;2.42;;
68792;SDS011;55778;54.346;10.210;2022-08-04T17:11:49;6.05;;;2.28;;
68792;SDS011;55778;54.346;10.210;2022-08-04T17:14:19;5.28;;;2.47;;
68792;SDS011;55778;54.346;10.210;2022-08-04T17:16:52;5.70;;;2.78;;
68792;SDS011;55778;54.346;10.210;2022-08-04T17:19:21;9.40;;;2.70;;
68792;SDS011;55778;54.346;10.210;2022-08-04T17:21:46;6.75;;;3.15;;
68792;SDS011;55778;54.346;10.210;2022-08-04T17:24:15;5.30;;;2.53;;
68792;SDS011;55778;54.346;10.210;2022-08-04T17:26:40;7.90;;;2.40;;
68792;SDS011;55778;54.346;10.210;2022-08-04T17:29:06;6.03;;;2.50;;
68792;SDS011;55778;54.346;10.210;2022-08-04T17:31:32;8.93;;;2.47;;
68792;SDS011;55778;54.346;10.210;2022-08-04T17:34:01;6.45;;;2.22;;
68792;SDS011;55778;54.346;10.210;2022-08-04T17:36:32;6.82;;;2.05;;
68792;SDS011;55778;54.346;10.210;2022-08-04T17:39:02;8.07;;;2.30;;
68792;SDS011;55778;54.346;10.210;2022-08-04T17:41:35;6.10;;;2.20;;
68792;SDS011;55778;54.346;10.210;2022-08-04T17:44:04;6.15;;;2.45;;
68792;SDS011;55778;54.346;10.210;2022-08-04T17:51:33;5.70;;;2.25;;
68792;SDS011;55778;54.346;10.210;2022-08-04T17:54:05;4.43;;;2.17;;
68792;SDS011;55778;54.346;10.210;2022-08-04T17:59:13;4.47;;;2.63;;
68792;SDS011;55778;54.346;10.210;2022-08-04T18:06:52;5.28;;;2.40;;
68792;SDS011;55778;54.346;10.210;2022-08-04T18:11:59;5.85;;;2.20;;
68792;SDS011;55778;54.346;10.210;2022-08-04T18:15:03;8.30;;;2.28;;
68792;SDS011;55778;54.346;10.210;2022-08-04T18:20:11;5.18;;;2.33;;
68792;SDS011;55778;54.346;10.210;2022-08-04T18:22:42;4.75;;;2.20;;
68792;SDS011;55778;54.346;10.210;2022-08-04T18:25:08;8.25;;;2.40;;
68792;SDS011;55778;54.346;10.210;2022-08-04T18:27:44;6.20;;;2.40;;
68792;SDS011;55778;54.346;10.210;2022-08-04T18:30:20;7.68;;;2.30;;
68792;SDS011;55778;54.346;10.210;2022-08-04T18:32:47;4.43;;;2.22;;
68792;SDS011;55778;54.346;10.210;2022-08-04T18:35:12;7.78;;;2.78;;
68792;SDS011;55778;54.346;10.210;2022-08-04T18:37:38;3.47;;;2.00;;
68792;SDS011;55778;54.346;10.210;2022-08-04T18:40:05;6.38;;;2.28;;
68792;SDS011;55778;54.346;10.210;2022-08-04T18:42:32;4.68;;;2.00;;
68792;SDS011;55778;54.346;10.210;2022-08-04T18:44:59;14.70;;;2.50;;
68792;SDS011;55778;54.346;10.210;2022-08-04T18:47:24;5.18;;;2.38;;
68792;SDS011;55778;54.346;10.210;2022-08-04T18:49:50;8.18;;;2.47;;
68792;SDS011;55778;54.346;10.210;2022-08-04T18:52:16;5.65;;;2.80;;
68792;SDS011;55778;54.346;10.210;2022-08-04T18:54:42;7.00;;;2.15;;
68792;SDS011;55778;54.346;10.210;2022-08-04T18:57:07;6.72;;;2.38;;
68792;SDS011;55778;54.346;10.210;2022-08-04T18:59:33;4.18;;;2.35;;
68792;SDS011;55778;54.346;10.210;2022-08-04T19:01:58;5.70;;;2.05;;
68792;SDS011;55778;54.346;10.210;2022-08-04T19:04:24;4.18;;;2.10;;
68792;SDS011;55778;54.346;10.210;2022-08-04T19:06:49;7.47;;;1.90;;
68792;SDS011;55778;54.346;10.210;2022-08-04T19:09:15;6.15;;;2.30;;
68792;SDS011;55778;54.346;10.210;2022-08-04T19:11:40;4.10;;;2.10;;
68792;SDS011;55778;54.346;10.210;2022-08-04T19:14:05;4.55;;;2.10;;
68792;SDS011;55778;54.346;10.210;2022-08-04T19:16:31;3.92;;;2.10;;
68792;SDS011;55778;54.346;10.210;2022-08-04T19:18:58;4.10;;;1.75;;
68792;SDS011;55778;54.346;10.210;2022-08-04T19:21:25;5.97;;;2.30;;
68792;SDS011;55778;54.346;10.210;2022-08-04T19:23:51;4.03;;;1.80;;
68792;SDS011;55778;54.346;10.210;2022-08-04T19:26:17;5.05;;;2.10;;
68792;SDS011;55778;54.346;10.210;2022-08-04T19:28:43;8.02;;;2.00;;
68792;SDS011;55778;54.346;10.210;2022-08-04T19:31:09;5.65;;;2.08;;
68792;SDS011;55778;54.346;10.210;2022-08-04T19:33:36;4.25;;;2.13;;
68792;SDS011;55778;54.346;10.210;2022-08-04T19:36:03;4.07;;;1.80;;